Slupsk, Poland

11:02 AM CEST on August 26, 2016 (GMT +0200)
IPOMORSK9 | | Change Station

Elev 23 ft 54.59 °N, 16.86 °E | Updated 60 seconds ago

Clear
Clear
79.9 °F
Feels Like 81 °F
N
16.8
Wind Variable Wind from WSW
Gusts 19.0 mph

Today
High -- | Low -- °F
--% Chance of Precip.
Yesterday
High -- | Low -- °F
Precip. -- in
Pressure 30.15 in
Visibility -9999.0 miles
Clouds
Heat Index 81 °F
Dew Point 62 °F
Humidity 55%
Rainfall 0.00 in
Snow Depth Not available.
5:48 AM 7:57 PM
Last Quarter, 36% visible
METAR EPGD 260830Z VRB07KT CAVOK 23/13 Q1021
Pressure 30.15 in
Visibility -9999.0 miles
Clouds
Heat Index 81 °F
Dew Point 62 °F
Humidity 55%
Rainfall 0.00 in
Snow Depth Not available.
5:48 AM 7:57 PM
Last Quarter, 36% visible
METAR EPGD 260830Z VRB07KT CAVOK 23/13 Q1021

10-Day Weather Forecast

×

Almanac

Astronomy

Aug. 26, 2016 Rise Set
Actual Time
Civil Twilight
Nautical Twilight
Astronomical Twilight
Moon
Length of Visible Light
Length of Day
Tomorrow will be .
, % of the Moon is Illuminated

Today's Extremes

Country Highs Country Lows

Community

WunderPhotos

Upload Photos

1,935,062 photos uploaded!

WunderBlog® & News

Nearby

Air Quality

  Air Quality AQ Index Pollutant
Not available.

Snow Depth

Station Depth Elevation

Earthquake Activity

City Distance Mag. Time & Date
Minimum magnitude displayed is 2.5.

Coastal Water Temperatures

Place Temperature

Stations

Nearby Weather Stations

Station Location Temp. Windchill Dew Point Humidity Wind Precip. Elev Updated Type